sensor_id;sensor_type;location;lat;lon;timestamp;pressure;altitude;pressure_sealevel;temperature;humidity
6196;BME280;3131;42.630;23.382;2022-10-31T00:01:43;94908.09;;;14.30;95.68
6196;BME280;3131;42.630;23.382;2022-10-31T00:04:13;94900.69;;;14.33;95.32
6196;BME280;3131;42.630;23.382;2022-10-31T00:06:42;94897.84;;;14.43;95.66
6196;BME280;3131;42.630;23.382;2022-10-31T00:09:12;94867.36;;;14.26;95.26
6196;BME280;3131;42.630;23.382;2022-10-31T00:11:41;94890.67;;;14.43;95.35
6196;BME280;3131;42.630;23.382;2022-10-31T00:14:10;94890.00;;;14.40;96.12
6196;BME280;3131;42.630;23.382;2022-10-31T00:16:40;94896.45;;;14.45;96.25
6196;BME280;3131;42.630;23.382;2022-10-31T00:19:09;94894.03;;;14.37;96.41
6196;BME280;3131;42.630;23.382;2022-10-31T00:21:39;94900.82;;;14.31;97.17
6196;BME280;3131;42.630;23.382;2022-10-31T00:24:10;94897.56;;;14.24;98.10
6196;BME280;3131;42.630;23.382;2022-10-31T00:26:39;94892.36;;;14.14;99.17
6196;BME280;3131;42.630;23.382;2022-10-31T00:29:08;94899.25;;;14.01;100.00
6196;BME280;3131;42.630;23.382;2022-10-31T00:31:38;94899.21;;;13.84;100.00
6196;BME280;3131;42.630;23.382;2022-10-31T00:34:07;94896.19;;;13.79;100.00
6196;BME280;3131;42.630;23.382;2022-10-31T00:36:36;94893.50;;;13.69;100.00
6196;BME280;3131;42.630;23.382;2022-10-31T00:39:06;94896.50;;;13.68;100.00
6196;BME280;3131;42.630;23.382;2022-10-31T00:41:35;94893.87;;;13.76;100.00
6196;BME280;3131;42.630;23.382;2022-10-31T00:44:05;94889.61;;;13.76;100.00
6196;BME280;3131;42.630;23.382;2022-10-31T00:46:35;94889.52;;;13.78;100.00
6196;BME280;3131;42.630;23.382;2022-10-31T00:49:04;94893.19;;;13.79;100.00
6196;BME280;3131;42.630;23.382;2022-10-31T00:51:33;94887.63;;;13.68;100.00
6196;BME280;3131;42.630;23.382;2022-10-31T00:54:03;94895.89;;;13.59;100.00
6196;BME280;3131;42.630;23.382;2022-10-31T00:56:32;94891.31;;;13.40;100.00
6196;BME280;3131;42.630;23.382;2022-10-31T00:59:02;94891.20;;;13.23;100.00
6196;BME280;3131;42.630;23.382;2022-10-31T01:01:31;94891.12;;;13.07;100.00
6196;BME280;3131;42.630;23.382;2022-10-31T01:04:01;94892.89;;;12.99;100.00
6196;BME280;3131;42.630;23.382;2022-10-31T01:06:30;94893.55;;;12.77;100.00
6196;BME280;3131;42.630;23.382;2022-10-31T01:08:59;94896.02;;;12.66;100.00
6196;BME280;3131;42.630;23.382;2022-10-31T01:11:29;94897.16;;;12.67;100.00
6196;BME280;3131;42.630;23.382;2022-10-31T01:13:58;94889.50;;;12.56;100.00
6196;BME280;3131;42.630;23.382;2022-10-31T01:16:28;94898.55;;;12.53;100.00
6196;BME280;3131;42.630;23.382;2022-10-31T01:18:58;94900.01;;;12.63;100.00
6196;BME280;3131;42.630;23.382;2022-10-31T01:21:28;94896.81;;;12.66;100.00
6196;BME280;3131;42.630;23.382;2022-10-31T01:23:58;94903.02;;;12.68;100.00
6196;BME280;3131;42.630;23.382;2022-10-31T01:26:31;94903.14;;;12.66;100.00
6196;BME280;3131;42.630;23.382;2022-10-31T01:29:03;94911.95;;;12.48;100.00
6196;BME280;3131;42.630;23.382;2022-10-31T01:31:35;94904.57;;;12.32;100.00
6196;BME280;3131;42.630;23.382;2022-10-31T01:34:05;94910.03;;;12.26;100.00
6196;BME280;3131;42.630;23.382;2022-10-31T01:36:35;94901.11;;;12.20;100.00
6196;BME280;3131;42.630;23.382;2022-10-31T01:39:07;94907.81;;;12.34;100.00
6196;BME280;3131;42.630;23.382;2022-10-31T01:41:38;94910.55;;;12.44;100.00
6196;BME280;3131;42.630;23.382;2022-10-31T01:44:49;94900.31;;;12.45;100.00
6196;BME280;3131;42.630;23.382;2022-10-31T01:47:23;94906.77;;;12.49;100.00
6196;BME280;3131;42.630;23.382;2022-10-31T01:49:54;94914.88;;;12.54;100.00
6196;BME280;3131;42.630;23.382;2022-10-31T01:52:26;94919.53;;;12.61;100.00
6196;BME280;3131;42.630;23.382;2022-10-31T01:57:40;94920.58;;;12.76;100.00
6196;BME280;3131;42.630;23.382;2022-10-31T02:00:12;94921.73;;;12.78;100.00
6196;BME280;3131;42.630;23.382;2022-10-31T02:02:42;94911.40;;;12.81;100.00
6196;BME280;3131;42.630;23.382;2022-10-31T02:05:16;94912.71;;;12.87;100.00
6196;BME280;3131;42.630;23.382;2022-10-31T02:07:50;94909.52;;;12.90;100.00
6196;BME280;3131;42.630;23.382;2022-10-31T02:10:20;94910.11;;;12.94;100.00
6196;BME280;3131;42.630;23.382;2022-10-31T02:12:52;94907.63;;;12.99;100.00
6196;BME280;3131;42.630;23.382;2022-10-31T02:15:22;94913.78;;;13.08;100.00
6196;BME280;3131;42.630;23.382;2022-10-31T02:17:52;94908.26;;;13.09;100.00
6196;BME280;3131;42.630;23.382;2022-10-31T02:20:23;94908.89;;;13.18;100.00
6196;BME280;3131;42.630;23.382;2022-10-31T02:26:07;94912.67;;;13.31;100.00
6196;BME280;3131;42.630;23.382;2022-10-31T02:31:50;94921.25;;;13.41;100.00
6196;BME280;3131;42.630;23.382;2022-10-31T02:34:21;94923.33;;;13.23;100.00
6196;BME280;3131;42.630;23.382;2022-10-31T02:36:56;94926.06;;;13.20;100.00
6196;BME280;3131;42.630;23.382;2022-10-31T02:39:26;94929.91;;;13.26;100.00
6196;BME280;3131;42.630;23.382;2022-10-31T02:42:02;94923.48;;;13.27;100.00
6196;BME280;3131;42.630;23.382;2022-10-31T02:44:35;94926.36;;;13.28;100.00
6196;BME280;3131;42.630;23.382;2022-10-31T02:47:08;94931.81;;;13.22;100.00
6196;BME280;3131;42.630;23.382;2022-10-31T02:49:40;94937.72;;;13.22;100.00
6196;BME280;3131;42.630;23.382;2022-10-31T02:52:19;94939.02;;;13.28;100.00
6196;BME280;3131;42.630;23.382;2022-10-31T02:54:49;94934.55;;;13.32;100.00
6196;BME280;3131;42.630;23.382;2022-10-31T02:57:20;94933.02;;;13.47;100.00
6196;BME280;3131;42.630;23.382;2022-10-31T02:59:53;94935.38;;;13.56;100.00
6196;BME280;3131;42.630;23.382;2022-10-31T03:02:36;94929.26;;;13.53;100.00
6196;BME280;3131;42.630;23.382;2022-10-31T03:08:19;94937.72;;;13.41;100.00
6196;BME280;3131;42.630;23.382;2022-10-31T03:10:52;94941.05;;;13.36;100.00
6196;BME280;3131;42.630;23.382;2022-10-31T03:13:26;94941.50;;;13.35;100.00
6196;BME280;3131;42.630;23.382;2022-10-31T03:15:59;94938.26;;;13.33;100.00
6196;BME280;3131;42.630;23.382;2022-10-31T03:18:29;94936.44;;;13.35;100.00
6196;BME280;3131;42.630;23.382;2022-10-31T03:23:41;94936.44;;;13.35;100.00
6196;BME280;3131;42.630;23.382;2022-10-31T03:26:13;94936.45;;;13.22;100.00
6196;BME280;3131;42.630;23.382;2022-10-31T03:28:48;94946.16;;;13.16;100.00
6196;BME280;3131;42.630;23.382;2022-10-31T03:31:17;94941.98;;;13.09;100.00
6196;BME280;3131;42.630;23.382;2022-10-31T03:33:48;94943.95;;;13.11;100.00
6196;BME280;3131;42.630;23.382;2022-10-31T03:36:19;94950.63;;;13.12;100.00
6196;BME280;3131;42.630;23.382;2022-10-31T03:41:38;94949.62;;;13.15;100.00
6196;BME280;3131;42.630;23.382;2022-10-31T03:44:10;94954.13;;;13.17;100.00
6196;BME280;3131;42.630;23.382;2022-10-31T03:46:41;94958.48;;;13.15;100.00
6196;BME280;3131;42.630;23.382;2022-10-31T03:49:12;94955.48;;;13.15;100.00
6196;BME280;3131;42.630;23.382;2022-10-31T03:51:44;94958.52;;;13.20;100.00
6196;BME280;3131;42.630;23.382;2022-10-31T03:54:17;94957.98;;;13.22;100.00
6196;BME280;3131;42.630;23.382;2022-10-31T03:56:49;94960.47;;;13.17;100.00
6196;BME280;3131;42.630;23.382;2022-10-31T03:59:21;94955.31;;;13.06;100.00
6196;BME280;3131;42.630;23.382;2022-10-31T04:01:54;94962.74;;;13.14;100.00
6196;BME280;3131;42.630;23.382;2022-10-31T04:04:24;94967.14;;;13.18;100.00
6196;BME280;3131;42.630;23.382;2022-10-31T04:06:55;94974.00;;;13.10;100.00
6196;BME280;3131;42.630;23.382;2022-10-31T04:09:26;94974.16;;;13.01;100.00
6196;BME280;3131;42.630;23.382;2022-10-31T04:11:58;94972.14;;;12.81;100.00
6196;BME280;3131;42.630;23.382;2022-10-31T04:14:30;94975.53;;;12.74;100.00
6196;BME280;3131;42.630;23.382;2022-10-31T04:17:02;94977.78;;;12.66;100.00
6196;BME280;3131;42.630;23.382;2022-10-31T04:19:33;94973.41;;;12.55;100.00
6196;BME280;3131;42.630;23.382;2022-10-31T04:22:02;94981.05;;;12.48;100.00
6196;BME280;3131;42.630;23.382;2022-10-31T04:24:31;94979.53;;;12.46;100.00
6196;BME280;3131;42.630;23.382;2022-10-31T04:27:01;94978.64;;;12.47;100.00
6196;BME280;3131;42.630;23.382;2022-10-31T04:29:30;94983.23;;;12.47;100.00
6196;BME280;3131;42.630;23.382;2022-10-31T04:32:00;94983.50;;;12.50;100.00
6196;BME280;3131;42.630;23.382;2022-10-31T04:34:29;94979.51;;;12.66;100.00
6196;BME280;3131;42.630;23.382;2022-10-31T04:36:58;94981.38;;;12.69;100.00
6196;BME280;3131;42.630;23.382;2022-10-31T04:39:28;94972.98;;;12.69;100.00
6196;BME280;3131;42.630;23.382;2022-10-31T04:41:57;94984.31;;;12.63;100.00
6196;BME280;3131;42.630;23.382;2022-10-31T04:44:26;94986.58;;;12.61;100.00
6196;BME280;3131;42.630;23.382;2022-10-31T04:46:55;94987.13;;;12.71;100.00
6196;BME280;3131;42.630;23.382;2022-10-31T04:49:25;94988.70;;;12.80;100.00
6196;BME280;3131;42.630;23.382;2022-10-31T04:51:54;94990.52;;;12.77;100.00
6196;BME280;3131;42.630;23.382;2022-10-31T04:54:23;94993.45;;;12.84;100.00
6196;BME280;3131;42.630;23.382;2022-10-31T04:56:53;94986.52;;;12.81;100.00
6196;BME280;3131;42.630;23.382;2022-10-31T04:59:22;94998.02;;;12.79;100.00
6196;BME280;3131;42.630;23.382;2022-10-31T05:01:52;95001.02;;;12.78;100.00
6196;BME280;3131;42.630;23.382;2022-10-31T05:04:21;95005.62;;;12.79;100.00
6196;BME280;3131;42.630;23.382;2022-10-31T05:06:50;95000.30;;;12.76;100.00
6196;BME280;3131;42.630;23.382;2022-10-31T05:09:20;94994.43;;;12.76;100.00
6196;BME280;3131;42.630;23.382;2022-10-31T05:11:49;95001.47;;;12.91;100.00
6196;BME280;3131;42.630;23.382;2022-10-31T05:14:18;94996.34;;;12.98;100.00
6196;BME280;3131;42.630;23.382;2022-10-31T05:16:48;95003.41;;;13.06;100.00
6196;BME280;3131;42.630;23.382;2022-10-31T05:19:17;95015.25;;;13.18;100.00
6196;BME280;3131;42.630;23.382;2022-10-31T05:21:46;95009.73;;;13.31;100.00
6196;BME280;3131;42.630;23.382;2022-10-31T05:24:15;95014.13;;;13.35;100.00
6196;BME280;3131;42.630;23.382;2022-10-31T05:26:45;95017.72;;;13.38;100.00
6196;BME280;3131;42.630;23.382;2022-10-31T05:29:14;95025.83;;;13.43;100.00
6196;BME280;3131;42.630;23.382;2022-10-31T05:31:43;95021.92;;;13.26;100.00
6196;BME280;3131;42.630;23.382;2022-10-31T05:34:13;95018.13;;;13.19;100.00
6196;BME280;3131;42.630;23.382;2022-10-31T05:36:42;95021.72;;;13.22;100.00
6196;BME280;3131;42.630;23.382;2022-10-31T05:39:11;95023.82;;;13.22;100.00
6196;BME280;3131;42.630;23.382;2022-10-31T05:41:41;95031.42;;;13.22;100.00
6196;BME280;3131;42.630;23.382;2022-10-31T05:44:10;95026.14;;;13.13;100.00
6196;BME280;3131;42.630;23.382;2022-10-31T05:46:39;95033.13;;;13.09;100.00
6196;BME280;3131;42.630;23.382;2022-10-31T05:49:08;95033.13;;;13.09;100.00
6196;BME280;3131;42.630;23.382;2022-10-31T05:51:37;95037.80;;;13.03;100.00
6196;BME280;3131;42.630;23.382;2022-10-31T05:54:07;95038.46;;;12.86;100.00
6196;BME280;3131;42.630;23.382;2022-10-31T05:56:36;95036.79;;;12.80;100.00
6196;BME280;3131;42.630;23.382;2022-10-31T05:59:06;95038.80;;;12.74;100.00
6196;BME280;3131;42.630;23.382;2022-10-31T06:01:35;95045.59;;;12.74;100.00
6196;BME280;3131;42.630;23.382;2022-10-31T06:04:04;95048.50;;;12.75;100.00
6196;BME280;3131;42.630;23.382;2022-10-31T06:06:34;95045.85;;;12.76;100.00
6196;BME280;3131;42.630;23.382;2022-10-31T06:09:03;95051.11;;;12.73;100.00
6196;BME280;3131;42.630;23.382;2022-10-31T06:11:32;95054.57;;;12.85;100.00
6196;BME280;3131;42.630;23.382;2022-10-31T06:14:02;95052.79;;;12.93;100.00
6196;BME280;3131;42.630;23.382;2022-10-31T06:16:32;95061.19;;;13.06;100.00
6196;BME280;3131;42.630;23.382;2022-10-31T06:19:01;95069.41;;;13.22;100.00
6196;BME280;3131;42.630;23.382;2022-10-31T06:21:30;95061.83;;;13.35;100.00
6196;BME280;3131;42.630;23.382;2022-10-31T06:23:59;95061.69;;;13.50;100.00
6196;BME280;3131;42.630;23.382;2022-10-31T06:26:29;95069.39;;;13.66;100.00
6196;BME280;3131;42.630;23.382;2022-10-31T06:28:58;95078.02;;;13.77;100.00
6196;BME280;3131;42.630;23.382;2022-10-31T06:31:27;95077.97;;;13.89;100.00
6196;BME280;3131;42.630;23.382;2022-10-31T06:33:56;95082.50;;;13.97;100.00
6196;BME280;3131;42.630;23.382;2022-10-31T06:36:26;95082.58;;;14.14;100.00
6196;BME280;3131;42.630;23.382;2022-10-31T06:38:55;95085.89;;;14.27;100.00
6196;BME280;3131;42.630;23.382;2022-10-31T06:41:25;95090.59;;;14.26;100.00
6196;BME280;3131;42.630;23.382;2022-10-31T06:43:54;95091.03;;;14.44;100.00
6196;BME280;3131;42.630;23.382;2022-10-31T06:46:23;95094.45;;;14.61;100.00
6196;BME280;3131;42.630;23.382;2022-10-31T06:48:53;95094.16;;;14.77;100.00
6196;BME280;3131;42.630;23.382;2022-10-31T06:51:22;95094.58;;;15.01;100.00
6196;BME280;3131;42.630;23.382;2022-10-31T06:53:51;95093.30;;;15.12;100.00
6196;BME280;3131;42.630;23.382;2022-10-31T06:56:20;95089.76;;;15.26;100.00
6196;BME280;3131;42.630;23.382;2022-10-31T06:58:49;95096.81;;;15.45;100.00
6196;BME280;3131;42.630;23.382;2022-10-31T07:01:19;95093.20;;;15.47;100.00
6196;BME280;3131;42.630;23.382;2022-10-31T07:03:48;95098.78;;;15.69;100.00
6196;BME280;3131;42.630;23.382;2022-10-31T07:06:17;95096.80;;;15.78;100.00
6196;BME280;3131;42.630;23.382;2022-10-31T07:08:46;95098.78;;;15.86;100.00
6196;BME280;3131;42.630;23.382;2022-10-31T07:11:16;95095.30;;;15.98;100.00
6196;BME280;3131;42.630;23.382;2022-10-31T07:13:46;95092.23;;;16.16;100.00
6196;BME280;3131;42.630;23.382;2022-10-31T07:16:15;95100.33;;;16.15;100.00
6196;BME280;3131;42.630;23.382;2022-10-31T07:18:44;95095.91;;;16.23;100.00
6196;BME280;3131;42.630;23.382;2022-10-31T07:21:13;95088.57;;;16.41;100.00
6196;BME280;3131;42.630;23.382;2022-10-31T07:23:43;95090.73;;;16.45;100.00
6196;BME280;3131;42.630;23.382;2022-10-31T07:26:12;95081.41;;;16.61;100.00
6196;BME280;3131;42.630;23.382;2022-10-31T07:28:42;95080.56;;;16.72;100.00
6196;BME280;3131;42.630;23.382;2022-10-31T07:31:11;95077.75;;;16.81;100.00
6196;BME280;3131;42.630;23.382;2022-10-31T07:33:41;95067.13;;;16.97;100.00
6196;BME280;3131;42.630;23.382;2022-10-31T07:36:10;95065.50;;;17.16;100.00
6196;BME280;3131;42.630;23.382;2022-10-31T07:38:39;95074.00;;;19.05;93.68
6196;BME280;3131;42.630;23.382;2022-10-31T07:41:09;95068.20;;;22.76;65.25
6196;BME280;3131;42.630;23.382;2022-10-31T07:43:38;95071.27;;;25.33;49.40
6196;BME280;3131;42.630;23.382;2022-10-31T07:46:07;95081.57;;;26.87;44.07
6196;BME280;3131;42.630;23.382;2022-10-31T07:48:37;95086.36;;;27.98;39.89
6196;BME280;3131;42.630;23.382;2022-10-31T07:51:07;95089.75;;;27.98;38.77
6196;BME280;3131;42.630;23.382;2022-10-31T07:53:36;95081.93;;;27.74;38.82
6196;BME280;3131;42.630;23.382;2022-10-31T07:56:06;95082.63;;;26.99;39.51
6196;BME280;3131;42.630;23.382;2022-10-31T07:58:35;95087.20;;;25.03;43.14
6196;BME280;3131;42.630;23.382;2022-10-31T08:01:05;95081.41;;;25.94;42.29
6196;BME280;3131;42.630;23.382;2022-10-31T08:03:34;95087.68;;;26.68;40.97
6196;BME280;3131;42.630;23.382;2022-10-31T08:06:04;95092.40;;;28.18;38.14
6196;BME280;3131;42.630;23.382;2022-10-31T08:08:33;95083.87;;;30.00;34.78
6196;BME280;3131;42.630;23.382;2022-10-31T08:11:02;95088.61;;;31.02;33.00
6196;BME280;3131;42.630;23.382;2022-10-31T08:13:31;95090.81;;;30.89;32.53
6196;BME280;3131;42.630;23.382;2022-10-31T08:16:01;95083.92;;;31.63;31.80
6196;BME280;3131;42.630;23.382;2022-10-31T08:18:32;95079.95;;;32.28;30.63
6196;BME280;3131;42.630;23.382;2022-10-31T08:21:01;95086.59;;;31.38;31.70
6196;BME280;3131;42.630;23.382;2022-10-31T08:23:31;95094.64;;;32.10;30.31
6196;BME280;3131;42.630;23.382;2022-10-31T08:26:00;95094.13;;;32.71;29.94
6196;BME280;3131;42.630;23.382;2022-10-31T08:28:29;95094.81;;;31.97;30.48
6196;BME280;3131;42.630;23.382;2022-10-31T08:30:59;95085.44;;;31.80;30.98
6196;BME280;3131;42.630;23.382;2022-10-31T08:33:29;95095.22;;;32.52;30.23
6196;BME280;3131;42.630;23.382;2022-10-31T08:35:59;95095.47;;;33.16;29.19
6196;BME280;3131;42.630;23.382;2022-10-31T08:38:28;95085.92;;;32.77;29.37
6196;BME280;3131;42.630;23.382;2022-10-31T08:40:58;95096.19;;;32.81;29.17
6196;BME280;3131;42.630;23.382;2022-10-31T08:43:27;95084.91;;;32.99;28.97
6196;BME280;3131;42.630;23.382;2022-10-31T08:45:57;95083.71;;;33.51;28.41
6196;BME280;3131;42.630;23.382;2022-10-31T08:48:26;95080.46;;;33.46;28.23
6196;BME280;3131;42.630;23.382;2022-10-31T08:50:58;95076.78;;;30.43;31.35
6196;BME280;3131;42.630;23.382;2022-10-31T08:53:28;95076.78;;;30.43;31.35
6196;BME280;3131;42.630;23.382;2022-10-31T08:55:57;95075.71;;;31.87;30.12
6196;BME280;3131;42.630;23.382;2022-10-31T08:58:26;95086.82;;;33.03;28.59
6196;BME280;3131;42.630;23.382;2022-10-31T09:00:58;95082.00;;;33.21;28.51
6196;BME280;3131;42.630;23.382;2022-10-31T09:03:28;95078.23;;;33.17;28.23
6196;BME280;3131;42.630;23.382;2022-10-31T09:06:02;95077.87;;;33.49;28.16
6196;BME280;3131;42.630;23.382;2022-10-31T09:08:33;95077.87;;;33.49;28.16
6196;BME280;3131;42.630;23.382;2022-10-31T09:11:03;95077.43;;;34.45;27.78
6196;BME280;3131;42.630;23.382;2022-10-31T09:13:34;95076.16;;;34.95;26.61
6196;BME280;3131;42.630;23.382;2022-10-31T09:16:03;95073.65;;;31.50;29.99
6196;BME280;3131;42.630;23.382;2022-10-31T09:18:33;95083.87;;;33.00;28.86
6196;BME280;3131;42.630;23.382;2022-10-31T09:21:02;95076.61;;;34.44;27.05
6196;BME280;3131;42.630;23.382;2022-10-31T09:23:32;95076.14;;;34.47;26.88
6196;BME280;3131;42.630;23.382;2022-10-31T09:26:02;95076.38;;;35.44;25.96
6196;BME280;3131;42.630;23.382;2022-10-31T09:28:31;95076.37;;;34.29;27.05
6196;BME280;3131;42.630;23.382;2022-10-31T09:31:00;95071.59;;;35.58;25.94
6196;BME280;3131;42.630;23.382;2022-10-31T09:33:30;95069.88;;;34.62;26.94
6196;BME280;3131;42.630;23.382;2022-10-31T09:38:36;95070.95;;;35.31;25.70
6196;BME280;3131;42.630;23.382;2022-10-31T09:41:12;95072.37;;;35.56;25.71
6196;BME280;3131;42.630;23.382;2022-10-31T09:43:43;95072.27;;;35.92;25.45
6196;BME280;3131;42.630;23.382;2022-10-31T09:46:14;95076.08;;;36.85;24.72
6196;BME280;3131;42.630;23.382;2022-10-31T09:48:50;95070.02;;;37.14;24.48
6196;BME280;3131;42.630;23.382;2022-10-31T09:51:22;95071.13;;;37.74;23.43
6196;BME280;3131;42.630;23.382;2022-10-31T09:53:53;95070.64;;;37.32;23.78
6196;BME280;3131;42.630;23.382;2022-10-31T09:56:24;95067.64;;;34.40;26.22
6196;BME280;3131;42.630;23.382;2022-10-31T09:58:58;95066.19;;;34.47;26.25
6196;BME280;3131;42.630;23.382;2022-10-31T10:01:37;95067.61;;;34.83;26.10
6196;BME280;3131;42.630;23.382;2022-10-31T10:04:15;95071.92;;;37.24;23.66
6196;BME280;3131;42.630;23.382;2022-10-31T10:06:44;95060.19;;;35.91;24.92
6196;BME280;3131;42.630;23.382;2022-10-31T10:09:14;95056.48;;;36.66;24.20
6196;BME280;3131;42.630;23.382;2022-10-31T10:11:52;95052.47;;;36.29;24.47
6196;BME280;3131;42.630;23.382;2022-10-31T10:14:29;95047.59;;;37.04;23.42
6196;BME280;3131;42.630;23.382;2022-10-31T10:17:07;95043.33;;;36.07;24.17
6196;BME280;3131;42.630;23.382;2022-10-31T10:22:52;95041.72;;;36.92;23.24
6196;BME280;3131;42.630;23.382;2022-10-31T10:25:28;95041.69;;;36.03;24.21
6196;BME280;3131;42.630;23.382;2022-10-31T10:28:08;95035.39;;;36.90;23.67
6196;BME280;3131;42.630;23.382;2022-10-31T10:30:41;95035.34;;;37.17;23.50
6196;BME280;3131;42.630;23.382;2022-10-31T10:33:13;95028.16;;;38.44;22.34
6196;BME280;3131;42.630;23.382;2022-10-31T10:35:46;95041.45;;;37.89;22.61
6196;BME280;3131;42.630;23.382;2022-10-31T10:38:23;95034.17;;;36.39;23.66
6196;BME280;3131;42.630;23.382;2022-10-31T10:40:54;95027.39;;;37.10;22.94
6196;BME280;3131;42.630;23.382;2022-10-31T10:43:26;95026.88;;;37.13;22.96
6196;BME280;3131;42.630;23.382;2022-10-31T10:46:03;95015.28;;;37.06;23.20
6196;BME280;3131;42.630;23.382;2022-10-31T10:48:54;95012.35;;;38.57;21.96
6196;BME280;3131;42.630;23.382;2022-10-31T10:51:24;95015.87;;;37.76;22.21
6196;BME280;3131;42.630;23.382;2022-10-31T10:54:09;95011.59;;;34.53;24.86
6196;BME280;3131;42.630;23.382;2022-10-31T10:56:47;95007.20;;;31.99;27.75
6196;BME280;3131;42.630;23.382;2022-10-31T10:59:19;95007.24;;;30.25;30.13
6196;BME280;3131;42.630;23.382;2022-10-31T11:01:50;94999.05;;;29.31;31.43
6196;BME280;3131;42.630;23.382;2022-10-31T11:04:26;95002.13;;;28.05;33.42
6196;BME280;3131;42.630;23.382;2022-10-31T11:07:06;94997.34;;;28.02;33.87
6196;BME280;3131;42.630;23.382;2022-10-31T11:09:35;94999.56;;;28.24;33.82
6196;BME280;3131;42.630;23.382;2022-10-31T11:12:09;94995.74;;;32.00;29.29
6196;BME280;3131;42.630;23.382;2022-10-31T11:14:46;94992.42;;;33.76;27.22
6196;BME280;3131;42.630;23.382;2022-10-31T11:17:26;94992.52;;;36.20;24.35
6196;BME280;3131;42.630;23.382;2022-10-31T11:20:20;94997.02;;;36.22;24.19
6196;BME280;3131;42.630;23.382;2022-10-31T11:22:48;94989.66;;;36.89;23.33
6196;BME280;3131;42.630;23.382;2022-10-31T11:25:25;94986.97;;;36.81;23.51
6196;BME280;3131;42.630;23.382;2022-10-31T11:28:01;94992.11;;;37.01;23.21
6196;BME280;3131;42.630;23.382;2022-10-31T11:30:35;94981.96;;;36.77;23.17
6196;BME280;3131;42.630;23.382;2022-10-31T11:33:02;94974.18;;;34.91;24.58
6196;BME280;3131;42.630;23.382;2022-10-31T11:35:32;94973.32;;;32.76;26.81
6196;BME280;3131;42.630;23.382;2022-10-31T11:38:03;94970.56;;;31.84;28.01
6196;BME280;3131;42.630;23.382;2022-10-31T11:40:33;94967.95;;;31.36;28.47
6196;BME280;3131;42.630;23.382;2022-10-31T11:43:02;94962.69;;;30.56;29.43
6196;BME280;3131;42.630;23.382;2022-10-31T11:45:33;94962.31;;;30.27;30.20
6196;BME280;3131;42.630;23.382;2022-10-31T11:48:14;94956.22;;;30.40;30.06
6196;BME280;3131;42.630;23.382;2022-10-31T11:50:48;94958.27;;;28.89;32.00
6196;BME280;3131;42.630;23.382;2022-10-31T11:53:20;94948.20;;;28.31;32.68
6196;BME280;3131;42.630;23.382;2022-10-31T11:58:55;94951.20;;;30.97;29.75
6196;BME280;3131;42.630;23.382;2022-10-31T12:01:28;94944.62;;;31.22;29.07
6196;BME280;3131;42.630;23.382;2022-10-31T12:04:04;94941.13;;;29.76;30.78
6196;BME280;3131;42.630;23.382;2022-10-31T12:06:35;94942.02;;;28.18;33.06
6196;BME280;3131;42.630;23.382;2022-10-31T12:12:09;94935.22;;;29.26;32.12
6196;BME280;3131;42.630;23.382;2022-10-31T12:14:41;94937.63;;;29.28;31.71
6196;BME280;3131;42.630;23.382;2022-10-31T12:17:13;94945.70;;;29.29;31.51
6196;BME280;3131;42.630;23.382;2022-10-31T12:19:47;94934.77;;;29.36;31.48
6196;BME280;3131;42.630;23.382;2022-10-31T12:25:07;94937.55;;;29.70;31.48
6196;BME280;3131;42.630;23.382;2022-10-31T12:30:37;94936.39;;;34.34;26.02
6196;BME280;3131;42.630;23.382;2022-10-31T12:33:19;94940.55;;;34.49;25.82
6196;BME280;3131;42.630;23.382;2022-10-31T12:35:53;94939.47;;;35.64;24.69
6196;BME280;3131;42.630;23.382;2022-10-31T12:38:51;94943.46;;;35.69;24.42
6196;BME280;3131;42.630;23.382;2022-10-31T12:41:39;94946.65;;;36.01;23.93
6196;BME280;3131;42.630;23.382;2022-10-31T12:44:12;94943.09;;;35.85;24.11
6196;BME280;3131;42.630;23.382;2022-10-31T12:46:55;94945.73;;;36.15;23.44
6196;BME280;3131;42.630;23.382;2022-10-31T12:49:38;94941.94;;;36.65;23.18
6196;BME280;3131;42.630;23.382;2022-10-31T12:55:03;94930.73;;;35.12;24.65
6196;BME280;3131;42.630;23.382;2022-10-31T12:57:35;94934.75;;;34.47;25.28
6196;BME280;3131;42.630;23.382;2022-10-31T13:02:56;94937.57;;;31.99;28.01
6196;BME280;3131;42.630;23.382;2022-10-31T13:05:29;94937.33;;;32.22;28.25
6196;BME280;3131;42.630;23.382;2022-10-31T13:08:02;94935.78;;;33.53;26.54
6196;BME280;3131;42.630;23.382;2022-10-31T13:10:34;94937.58;;;33.52;26.67
6196;BME280;3131;42.630;23.382;2022-10-31T13:15:55;94933.22;;;34.85;25.16
6196;BME280;3131;42.630;23.382;2022-10-31T13:18:27;94938.80;;;35.76;24.31
6196;BME280;3131;42.630;23.382;2022-10-31T13:20:59;94942.21;;;35.77;24.16
6196;BME280;3131;42.630;23.382;2022-10-31T13:23:31;94942.90;;;35.45;24.31
6196;BME280;3131;42.630;23.382;2022-10-31T13:26:03;94942.13;;;34.50;25.15
6196;BME280;3131;42.630;23.382;2022-10-31T13:31:21;94937.55;;;36.09;23.58
6196;BME280;3131;42.630;23.382;2022-10-31T13:33:52;94938.77;;;35.52;24.09
6196;BME280;3131;42.630;23.382;2022-10-31T13:36:25;94943.73;;;36.59;23.13
6196;BME280;3131;42.630;23.382;2022-10-31T13:38:59;94941.79;;;35.61;23.99
6196;BME280;3131;42.630;23.382;2022-10-31T13:41:34;94945.02;;;35.95;23.66
6196;BME280;3131;42.630;23.382;2022-10-31T13:44:06;94936.95;;;35.28;24.37
6196;BME280;3131;42.630;23.382;2022-10-31T13:46:40;94943.82;;;34.93;24.43
6196;BME280;3131;42.630;23.382;2022-10-31T13:52:22;94946.92;;;33.91;25.55
6196;BME280;3131;42.630;23.382;2022-10-31T13:54:49;94945.01;;;33.46;26.23
6196;BME280;3131;42.630;23.382;2022-10-31T13:57:24;94943.27;;;33.78;25.98
6196;BME280;3131;42.630;23.382;2022-10-31T13:59:56;94944.73;;;33.85;26.29
6196;BME280;3131;42.630;23.382;2022-10-31T14:02:29;94941.50;;;33.52;26.53
6196;BME280;3131;42.630;23.382;2022-10-31T14:05:02;94941.41;;;33.61;26.22
6196;BME280;3131;42.630;23.382;2022-10-31T14:07:32;94938.59;;;34.23;25.40
6196;BME280;3131;42.630;23.382;2022-10-31T14:10:04;94938.95;;;34.29;25.34
6196;BME280;3131;42.630;23.382;2022-10-31T14:12:38;94941.64;;;34.03;25.54
6196;BME280;3131;42.630;23.382;2022-10-31T14:17:58;94945.13;;;33.37;26.14
6196;BME280;3131;42.630;23.382;2022-10-31T14:20:39;94945.47;;;33.43;26.13